sensor_id;sensor_type;location;lat;lon;timestamp;pressure;altitude;pressure_sealevel;temperature;humidity
61384;BME280;63511;49.346;8.798;2023-07-31T00:25:08;100157.22;;;19.29;73.20
61384;BME280;63511;49.346;8.798;2023-07-31T00:27:34;100143.66;;;19.32;74.21
61384;BME280;63511;49.346;8.798;2023-07-31T00:30:01;100138.31;;;19.24;75.54
61384;BME280;63511;49.346;8.798;2023-07-31T00:32:27;100149.50;;;19.28;72.05
61384;BME280;63511;49.346;8.798;2023-07-31T00:34:53;100134.28;;;19.32;71.13
61384;BME280;63511;49.346;8.798;2023-07-31T00:37:20;100137.13;;;19.41;71.01
61384;BME280;63511;49.346;8.798;2023-07-31T00:39:47;100133.88;;;19.19;74.77
61384;BME280;63511;49.346;8.798;2023-07-31T00:42:15;100129.13;;;19.31;73.25
61384;BME280;63511;49.346;8.798;2023-07-31T00:44:43;100141.06;;;19.30;70.83
61384;BME280;63511;49.346;8.798;2023-07-31T00:47:09;100136.28;;;19.42;70.40
61384;BME280;63511;49.346;8.798;2023-07-31T00:49:36;100141.06;;;19.30;72.37
61384;BME280;63511;49.346;8.798;2023-07-31T00:52:04;100135.19;;;19.34;72.46
61384;BME280;63511;49.346;8.798;2023-07-31T00:54:31;100128.88;;;19.51;68.08
61384;BME280;63511;49.346;8.798;2023-07-31T00:56:58;100120.38;;;19.52;69.33
61384;BME280;63511;49.346;8.798;2023-07-31T00:59:26;100135.19;;;19.64;68.80
61384;BME280;63511;49.346;8.798;2023-07-31T01:01:53;100128.22;;;19.59;67.94
61384;BME280;63511;49.346;8.798;2023-07-31T01:04:20;100138.75;;;19.69;67.41
61384;BME280;63511;49.346;8.798;2023-07-31T01:06:53;100111.75;;;19.21;68.32
61384;BME280;63511;49.346;8.798;2023-07-31T01:09:28;100126.53;;;19.59;67.18
61384;BME280;63511;49.346;8.798;2023-07-31T01:11:57;100105.91;;;19.55;67.89
61384;BME280;63511;49.346;8.798;2023-07-31T01:14:28;100103.00;;;19.42;67.49
61384;BME280;63511;49.346;8.798;2023-07-31T01:16:55;100103.34;;;19.55;66.50
61384;BME280;63511;49.346;8.798;2023-07-31T01:19:23;100106.38;;;19.71;64.84
61384;BME280;63511;49.346;8.798;2023-07-31T01:22:04;100107.59;;;19.85;66.87
61384;BME280;63511;49.346;8.798;2023-07-31T01:24:42;100109.97;;;19.78;65.74
61384;BME280;63511;49.346;8.798;2023-07-31T01:27:16;100107.06;;;19.66;64.78
61384;BME280;63511;49.346;8.798;2023-07-31T01:29:47;100110.69;;;19.72;66.22
61384;BME280;63511;49.346;8.798;2023-07-31T01:32:16;100090.88;;;19.67;67.09
61384;BME280;63511;49.346;8.798;2023-07-31T01:34:44;100096.25;;;19.76;67.00
61384;BME280;63511;49.346;8.798;2023-07-31T01:37:12;100102.44;;;19.84;66.92
61384;BME280;63511;49.346;8.798;2023-07-31T01:39:38;100085.66;;;19.64;66.88
61384;BME280;63511;49.346;8.798;2023-07-31T01:42:06;100100.31;;;19.69;66.36
61384;BME280;63511;49.346;8.798;2023-07-31T01:44:34;100085.88;;;19.71;68.46
61384;BME280;63511;49.346;8.798;2023-07-31T01:47:01;100087.50;;;19.68;66.68
61384;BME280;63511;49.346;8.798;2023-07-31T01:49:27;100081.06;;;19.83;66.95
61384;BME280;63511;49.346;8.798;2023-07-31T01:51:54;100083.25;;;19.68;67.25
61384;BME280;63511;49.346;8.798;2023-07-31T01:54:21;100079.06;;;19.72;66.80
61384;BME280;63511;49.346;8.798;2023-07-31T01:56:48;100084.22;;;19.73;64.27
61384;BME280;63511;49.346;8.798;2023-07-31T01:59:14;100068.50;;;19.92;65.02
61384;BME280;63511;49.346;8.798;2023-07-31T02:01:43;100072.84;;;19.97;66.39
61384;BME280;63511;49.346;8.798;2023-07-31T02:04:09;100087.22;;;19.90;66.55
61384;BME280;63511;49.346;8.798;2023-07-31T02:06:36;100065.44;;;19.74;67.59
61384;BME280;63511;49.346;8.798;2023-07-31T02:09:03;100063.31;;;19.89;66.55
61384;BME280;63511;49.346;8.798;2023-07-31T02:11:30;100064.56;;;19.72;67.96
61384;BME280;63511;49.346;8.798;2023-07-31T02:13:57;100075.31;;;19.92;66.97
61384;BME280;63511;49.346;8.798;2023-07-31T02:16:24;100071.75;;;19.87;66.21
61384;BME280;63511;49.346;8.798;2023-07-31T02:18:52;100057.97;;;19.82;66.18
61384;BME280;63511;49.346;8.798;2023-07-31T02:21:19;100060.31;;;19.73;66.36
61384;BME280;63511;49.346;8.798;2023-07-31T02:23:45;100057.75;;;19.74;68.29
61384;BME280;63511;49.346;8.798;2023-07-31T02:26:12;100061.88;;;19.69;66.70
61384;BME280;63511;49.346;8.798;2023-07-31T02:28:39;100038.88;;;19.71;66.22
61384;BME280;63511;49.346;8.798;2023-07-31T02:31:08;100053.66;;;19.48;67.56
61384;BME280;63511;49.346;8.798;2023-07-31T02:33:34;100059.03;;;19.59;66.97
61384;BME280;63511;49.346;8.798;2023-07-31T02:58:21;100031.19;;;19.71;68.08
61384;BME280;63511;49.346;8.798;2023-07-31T03:00:48;100051.09;;;19.48;69.25
61384;BME280;63511;49.346;8.798;2023-07-31T03:03:15;100040.69;;;19.43;69.34
61384;BME280;63511;49.346;8.798;2023-07-31T03:05:41;100033.28;;;19.52;68.69
61384;BME280;63511;49.346;8.798;2023-07-31T03:08:08;100034.78;;;19.44;68.84
61384;BME280;63511;49.346;8.798;2023-07-31T03:10:35;100036.69;;;19.51;69.39
61384;BME280;63511;49.346;8.798;2023-07-31T03:13:01;100051.19;;;19.51;68.41
61384;BME280;63511;49.346;8.798;2023-07-31T03:15:30;100032.88;;;19.39;68.50
61384;BME280;63511;49.346;8.798;2023-07-31T03:17:56;100047.22;;;19.64;67.95
61384;BME280;63511;49.346;8.798;2023-07-31T03:20:23;100046.97;;;19.53;65.96
61384;BME280;63511;49.346;8.798;2023-07-31T03:22:49;100045.94;;;19.46;69.61
61384;BME280;63511;49.346;8.798;2023-07-31T03:25:16;100037.53;;;19.52;69.20
61384;BME280;63511;49.346;8.798;2023-07-31T03:27:43;100043.09;;;19.37;68.98
61384;BME280;63511;49.346;8.798;2023-07-31T03:30:10;100031.94;;;19.35;69.84
61384;BME280;63511;49.346;8.798;2023-07-31T03:32:38;100034.19;;;19.25;69.91
61384;BME280;63511;49.346;8.798;2023-07-31T03:35:05;100027.91;;;19.14;70.86
61384;BME280;63511;49.346;8.798;2023-07-31T03:37:32;100028.44;;;19.02;69.59
61384;BME280;63511;49.346;8.798;2023-07-31T03:39:59;100031.28;;;19.11;69.25
61384;BME280;63511;49.346;8.798;2023-07-31T03:42:25;100035.72;;;19.18;69.64
61384;BME280;63511;49.346;8.798;2023-07-31T03:44:52;100037.47;;;19.19;68.36
61384;BME280;63511;49.346;8.798;2023-07-31T03:47:19;100035.53;;;19.12;69.21
61384;BME280;63511;49.346;8.798;2023-07-31T03:49:47;100025.41;;;19.15;69.44
61384;BME280;63511;49.346;8.798;2023-07-31T03:52:14;100054.97;;;19.35;69.68
61384;BME280;63511;49.346;8.798;2023-07-31T03:54:41;100038.06;;;19.10;70.01
61384;BME280;63511;49.346;8.798;2023-07-31T03:57:09;100021.69;;;19.04;68.60
61384;BME280;63511;49.346;8.798;2023-07-31T03:59:39;100024.34;;;19.08;69.92
61384;BME280;63511;49.346;8.798;2023-07-31T04:02:06;100042.75;;;19.25;69.19
61384;BME280;63511;49.346;8.798;2023-07-31T04:04:32;100038.78;;;19.05;69.55
61384;BME280;63511;49.346;8.798;2023-07-31T04:07:00;100043.50;;;19.21;70.24
61384;BME280;63511;49.346;8.798;2023-07-31T04:09:27;100026.03;;;19.06;69.69
61384;BME280;63511;49.346;8.798;2023-07-31T04:11:54;100047.28;;;19.35;69.97
61384;BME280;63511;49.346;8.798;2023-07-31T04:14:20;100047.69;;;19.19;70.15
61384;BME280;63511;49.346;8.798;2023-07-31T04:16:47;100041.72;;;19.19;70.31
61384;BME280;63511;49.346;8.798;2023-07-31T04:19:14;100048.13;;;19.34;70.22
61384;BME280;63511;49.346;8.798;2023-07-31T04:21:42;100053.00;;;19.25;70.49
61384;BME280;63511;49.346;8.798;2023-07-31T04:24:10;100043.31;;;19.15;70.74
61384;BME280;63511;49.346;8.798;2023-07-31T04:26:36;100044.09;;;19.44;69.78
61384;BME280;63511;49.346;8.798;2023-07-31T04:29:03;100036.34;;;19.09;71.42
61384;BME280;63511;49.346;8.798;2023-07-31T04:31:30;100033.44;;;19.29;69.94
61384;BME280;63511;49.346;8.798;2023-07-31T04:33:57;100020.47;;;19.23;70.61
61384;BME280;63511;49.346;8.798;2023-07-31T04:36:24;100030.00;;;19.27;69.61
61384;BME280;63511;49.346;8.798;2023-07-31T04:38:50;100038.50;;;19.26;70.28
61384;BME280;63511;49.346;8.798;2023-07-31T04:41:19;100032.38;;;19.21;70.23
61384;BME280;63511;49.346;8.798;2023-07-31T04:43:45;100032.56;;;19.27;69.68
61384;BME280;63511;49.346;8.798;2023-07-31T04:46:12;100026.22;;;19.14;70.25
61384;BME280;63511;49.346;8.798;2023-07-31T04:48:39;100023.84;;;19.20;69.80
61384;BME280;63511;49.346;8.798;2023-07-31T04:51:05;100022.44;;;19.31;69.48
61384;BME280;63511;49.346;8.798;2023-07-31T04:53:32;100011.50;;;19.37;69.27
61384;BME280;63511;49.346;8.798;2023-07-31T04:55:59;100027.28;;;19.21;69.25
61384;BME280;63511;49.346;8.798;2023-07-31T04:58:27;100021.31;;;19.22;69.64
61384;BME280;63511;49.346;8.798;2023-07-31T05:00:54;100029.81;;;19.50;69.29
61384;BME280;63511;49.346;8.798;2023-07-31T05:03:20;100014.94;;;19.39;67.75
61384;BME280;63511;49.346;8.798;2023-07-31T05:05:47;100028.19;;;19.54;71.07
61384;BME280;63511;49.346;8.798;2023-07-31T05:08:14;100025.63;;;19.54;69.03
61384;BME280;63511;49.346;8.798;2023-07-31T05:10:42;100038.81;;;19.68;67.06
61384;BME280;63511;49.346;8.798;2023-07-31T05:13:09;100027.13;;;19.46;67.90
61384;BME280;63511;49.346;8.798;2023-07-31T05:15:37;100032.41;;;19.52;66.73
61384;BME280;63511;49.346;8.798;2023-07-31T05:18:04;100022.75;;;19.75;65.95
61384;BME280;63511;49.346;8.798;2023-07-31T05:20:31;100025.78;;;19.60;68.71
61384;BME280;63511;49.346;8.798;2023-07-31T05:22:57;100011.56;;;19.40;65.42
61384;BME280;63511;49.346;8.798;2023-07-31T05:25:24;100036.41;;;19.74;66.72
61384;BME280;63511;49.346;8.798;2023-07-31T05:27:51;100020.44;;;19.51;66.06
61384;BME280;63511;49.346;8.798;2023-07-31T05:30:17;100029.06;;;19.55;67.53
61384;BME280;63511;49.346;8.798;2023-07-31T05:32:46;100024.69;;;19.50;69.34
61384;BME280;63511;49.346;8.798;2023-07-31T05:35:12;100030.22;;;19.66;69.99
61384;BME280;63511;49.346;8.798;2023-07-31T05:37:39;100014.44;;;19.50;67.48
61384;BME280;63511;49.346;8.798;2023-07-31T05:40:07;100024.44;;;19.73;67.42
61384;BME280;63511;49.346;8.798;2023-07-31T05:42:33;100034.50;;;19.67;68.41
61384;BME280;63511;49.346;8.798;2023-07-31T05:45:02;100032.94;;;19.72;70.50
61384;BME280;63511;49.346;8.798;2023-07-31T05:47:29;100016.13;;;19.50;69.11
61384;BME280;63511;49.346;8.798;2023-07-31T05:49:57;100023.63;;;19.44;67.46
61384;BME280;63511;49.346;8.798;2023-07-31T05:52:24;100016.56;;;19.67;68.53
61384;BME280;63511;49.346;8.798;2023-07-31T05:54:50;100028.59;;;19.69;68.77
61384;BME280;63511;49.346;8.798;2023-07-31T05:57:17;100030.84;;;19.57;68.24
61384;BME280;63511;49.346;8.798;2023-07-31T05:59:44;100025.63;;;19.54;66.06
61384;BME280;63511;49.346;8.798;2023-07-31T06:02:11;100031.78;;;19.61;67.59
61384;BME280;63511;49.346;8.798;2023-07-31T06:04:37;100026.19;;;19.75;68.49
61384;BME280;63511;49.346;8.798;2023-07-31T06:07:06;100037.53;;;19.85;68.61
61384;BME280;63511;49.346;8.798;2023-07-31T06:09:33;100037.94;;;19.67;69.57
61384;BME280;63511;49.346;8.798;2023-07-31T06:11:59;100029.66;;;19.77;69.02
61384;BME280;63511;49.346;8.798;2023-07-31T06:14:26;100035.22;;;19.94;69.03
61384;BME280;63511;49.346;8.798;2023-07-31T06:16:52;100036.53;;;19.78;67.90
61384;BME280;63511;49.346;8.798;2023-07-31T06:19:19;100034.19;;;19.87;67.57
61384;BME280;63511;49.346;8.798;2023-07-31T06:21:46;100038.94;;;19.72;67.25
61384;BME280;63511;49.346;8.798;2023-07-31T06:24:14;100034.28;;;19.92;67.08
61384;BME280;63511;49.346;8.798;2023-07-31T06:26:44;100034.84;;;19.79;67.89
61384;BME280;63511;49.346;8.798;2023-07-31T06:29:10;100020.28;;;19.78;66.83
61384;BME280;63511;49.346;8.798;2023-07-31T06:31:37;100019.94;;;19.99;67.73
61384;BME280;63511;49.346;8.798;2023-07-31T06:34:04;100013.59;;;19.84;68.97
61384;BME280;63511;49.346;8.798;2023-07-31T06:36:30;100010.25;;;19.87;68.65
61384;BME280;63511;49.346;8.798;2023-07-31T06:38:57;100013.06;;;19.98;67.27
61384;BME280;63511;49.346;8.798;2023-07-31T06:41:25;100011.69;;;20.10;67.40
61384;BME280;63511;49.346;8.798;2023-07-31T06:43:51;100016.56;;;20.00;65.79
61384;BME280;63511;49.346;8.798;2023-07-31T06:46:18;100007.72;;;19.88;67.32
61384;BME280;63511;49.346;8.798;2023-07-31T06:48:45;100014.66;;;19.92;66.40
61384;BME280;63511;49.346;8.798;2023-07-31T06:51:11;100002.75;;;19.94;67.16
61384;BME280;63511;49.346;8.798;2023-07-31T06:53:38;100002.78;;;19.96;66.94
61384;BME280;63511;49.346;8.798;2023-07-31T06:56:04;100002.31;;;20.12;66.26
61384;BME280;63511;49.346;8.798;2023-07-31T06:58:32;100002.41;;;20.17;66.88
61384;BME280;63511;49.346;8.798;2023-07-31T07:00:59;99997.28;;;20.15;67.06
61384;BME280;63511;49.346;8.798;2023-07-31T07:03:25;99997.13;;;20.09;66.34
61384;BME280;63511;49.346;8.798;2023-07-31T07:05:52;100005.03;;;20.18;65.68
61384;BME280;63511;49.346;8.798;2023-07-31T07:08:19;100011.69;;;20.10;66.70
61384;BME280;63511;49.346;8.798;2023-07-31T07:10:46;100008.34;;;20.14;67.83
61384;BME280;63511;49.346;8.798;2023-07-31T07:13:13;100009.34;;;20.19;66.07
61384;BME280;63511;49.346;8.798;2023-07-31T07:15:41;99999.06;;;20.19;66.10
61384;BME280;63511;49.346;8.798;2023-07-31T07:18:07;100003.53;;;20.28;65.09
61384;BME280;63511;49.346;8.798;2023-07-31T07:20:35;100000.53;;;20.44;64.04
61384;BME280;63511;49.346;8.798;2023-07-31T07:23:02;100000.41;;;20.78;65.36
61384;BME280;63511;49.346;8.798;2023-07-31T07:25:29;100004.25;;;20.58;64.78
61384;BME280;63511;49.346;8.798;2023-07-31T07:27:55;100003.84;;;20.79;64.68
61384;BME280;63511;49.346;8.798;2023-07-31T07:30:22;100002.31;;;20.87;64.40
61384;BME280;63511;49.346;8.798;2023-07-31T07:32:51;100003.41;;;21.00;65.10
61384;BME280;63511;49.346;8.798;2023-07-31T07:35:18;100002.34;;;20.90;64.57
61384;BME280;63511;49.346;8.798;2023-07-31T07:37:45;99998.69;;;20.77;62.59
61384;BME280;63511;49.346;8.798;2023-07-31T07:40:11;99989.16;;;20.73;64.58
61384;BME280;63511;49.346;8.798;2023-07-31T07:42:38;99999.09;;;20.99;63.10
61384;BME280;63511;49.346;8.798;2023-07-31T07:45:06;100001.63;;;20.96;64.37
61384;BME280;63511;49.346;8.798;2023-07-31T07:47:32;99984.44;;;20.92;63.40
61384;BME280;63511;49.346;8.798;2023-07-31T07:50:01;99985.50;;;21.03;64.15
61384;BME280;63511;49.346;8.798;2023-07-31T07:52:27;99986.03;;;21.30;63.64
61384;BME280;63511;49.346;8.798;2023-07-31T07:54:55;99986.03;;;21.29;64.90
61384;BME280;63511;49.346;8.798;2023-07-31T07:57:21;99990.41;;;21.34;62.84
61384;BME280;63511;49.346;8.798;2023-07-31T07:59:48;99990.13;;;21.20;63.73
61384;BME280;63511;49.346;8.798;2023-07-31T08:02:15;99999.03;;;21.38;63.67
61384;BME280;63511;49.346;8.798;2023-07-31T08:04:41;99991.44;;;21.44;62.34
61384;BME280;63511;49.346;8.798;2023-07-31T08:07:10;99988.13;;;21.49;61.42
61384;BME280;63511;49.346;8.798;2023-07-31T08:09:37;99980.25;;;21.42;62.19
61384;BME280;63511;49.346;8.798;2023-07-31T08:12:04;99982.91;;;21.45;61.52
61384;BME280;63511;49.346;8.798;2023-07-31T08:14:31;99978.28;;;21.27;60.97
61384;BME280;63511;49.346;8.798;2023-07-31T08:16:57;99981.72;;;21.28;61.53
61384;BME280;63511;49.346;8.798;2023-07-31T08:19:24;99979.38;;;21.40;60.95
61384;BME280;63511;49.346;8.798;2023-07-31T08:21:51;99982.94;;;21.48;60.56
61384;BME280;63511;49.346;8.798;2023-07-31T08:24:19;99975.31;;;21.52;60.83
61384;BME280;63511;49.346;8.798;2023-07-31T08:26:45;99975.66;;;21.72;60.71
61384;BME280;63511;49.346;8.798;2023-07-31T08:29:13;99976.16;;;21.50;61.39
61384;BME280;63511;49.346;8.798;2023-07-31T08:31:40;99973.91;;;21.71;60.37
61384;BME280;63511;49.346;8.798;2023-07-31T08:34:06;99962.78;;;21.71;60.49
61384;BME280;63511;49.346;8.798;2023-07-31T08:36:33;99965.34;;;21.72;60.75
61384;BME280;63511;49.346;8.798;2023-07-31T08:39:00;99969.53;;;21.64;60.97
61384;BME280;63511;49.346;8.798;2023-07-31T08:41:28;99968.06;;;21.80;61.97
61384;BME280;63511;49.346;8.798;2023-07-31T08:43:55;99958.94;;;21.95;59.28
61384;BME280;63511;49.346;8.798;2023-07-31T08:46:23;99951.38;;;22.06;60.58
61384;BME280;63511;49.346;8.798;2023-07-31T08:48:51;99943.25;;;21.83;59.72
61384;BME280;63511;49.346;8.798;2023-07-31T08:51:19;99951.81;;;21.82;59.95
61384;BME280;63511;49.346;8.798;2023-07-31T08:53:46;99940.94;;;21.97;59.75
61384;BME280;63511;49.346;8.798;2023-07-31T08:56:13;99938.41;;;22.00;58.99
61384;BME280;63511;49.346;8.798;2023-07-31T08:58:44;99938.50;;;22.06;59.30
61384;BME280;63511;49.346;8.798;2023-07-31T09:01:13;99944.66;;;22.16;59.86
61384;BME280;63511;49.346;8.798;2023-07-31T09:03:41;99935.16;;;22.13;58.50
61384;BME280;63511;49.346;8.798;2023-07-31T09:06:09;99925.88;;;22.23;58.35
61384;BME280;63511;49.346;8.798;2023-07-31T09:08:40;99926.94;;;22.38;58.70
61384;BME280;63511;49.346;8.798;2023-07-31T09:11:08;99935.47;;;22.34;58.51
61384;BME280;63511;49.346;8.798;2023-07-31T09:13:35;99928.53;;;22.29;58.09
61384;BME280;63511;49.346;8.798;2023-07-31T09:16:03;99918.25;;;22.30;58.74
61384;BME280;63511;49.346;8.798;2023-07-31T09:18:30;99913.97;;;22.28;59.43
61384;BME280;63511;49.346;8.798;2023-07-31T09:21:03;99912.03;;;22.15;58.89
61384;BME280;63511;49.346;8.798;2023-07-31T09:23:40;99920.69;;;22.20;58.19
61384;BME280;63511;49.346;8.798;2023-07-31T09:26:07;99911.47;;;22.35;58.39
61384;BME280;63511;49.346;8.798;2023-07-31T09:28:34;99908.09;;;22.41;57.70
61384;BME280;63511;49.346;8.798;2023-07-31T09:31:00;99905.81;;;22.64;58.61
61384;BME280;63511;49.346;8.798;2023-07-31T09:33:29;99902.69;;;22.87;57.34
61384;BME280;63511;49.346;8.798;2023-07-31T09:35:58;99905.53;;;23.16;57.88
61384;BME280;63511;49.346;8.798;2023-07-31T09:38:25;99904.72;;;23.19;57.49
61384;BME280;63511;49.346;8.798;2023-07-31T09:40:51;99907.94;;;22.98;58.13
61384;BME280;63511;49.346;8.798;2023-07-31T09:43:20;99901.59;;;22.70;57.50
61384;BME280;63511;49.346;8.798;2023-07-31T09:45:47;99898.44;;;22.93;57.19
61384;BME280;63511;49.346;8.798;2023-07-31T09:48:16;99884.19;;;23.28;57.08
61384;BME280;63511;49.346;8.798;2023-07-31T09:50:46;99888.66;;;23.47;56.53
61384;BME280;63511;49.346;8.798;2023-07-31T09:53:13;99878.34;;;23.46;55.50
61384;BME280;63511;49.346;8.798;2023-07-31T09:55:41;99875.84;;;23.52;55.62
61384;BME280;63511;49.346;8.798;2023-07-31T09:58:09;99876.91;;;23.89;55.91
61384;BME280;63511;49.346;8.798;2023-07-31T10:00:37;99868.47;;;24.15;52.77
61384;BME280;63511;49.346;8.798;2023-07-31T10:03:05;99863.28;;;24.06;53.54
61384;BME280;63511;49.346;8.798;2023-07-31T10:05:34;99860.66;;;23.97;51.96
61384;BME280;63511;49.346;8.798;2023-07-31T10:08:03;99858.78;;;23.75;51.59
61384;BME280;63511;49.346;8.798;2023-07-31T10:10:31;99852.84;;;23.90;54.35
61384;BME280;63511;49.346;8.798;2023-07-31T10:12:59;99854.47;;;23.71;54.05
61384;BME280;63511;49.346;8.798;2023-07-31T10:15:27;99847.53;;;23.61;53.68
61384;BME280;63511;49.346;8.798;2023-07-31T10:17:55;99853.59;;;23.67;55.68
61384;BME280;63511;49.346;8.798;2023-07-31T10:20:23;99855.31;;;23.68;55.37
61384;BME280;63511;49.346;8.798;2023-07-31T10:22:51;99856.25;;;23.78;54.11
61384;BME280;63511;49.346;8.798;2023-07-31T10:25:21;99847.50;;;23.56;54.73
61384;BME280;63511;49.346;8.798;2023-07-31T10:27:49;99844.16;;;23.71;54.84
61384;BME280;63511;49.346;8.798;2023-07-31T10:30:20;99843.22;;;23.57;52.97
61384;BME280;63511;49.346;8.798;2023-07-31T10:32:47;99836.41;;;23.66;53.42
61384;BME280;63511;49.346;8.798;2023-07-31T10:35:16;99838.91;;;23.59;55.21
61384;BME280;63511;49.346;8.798;2023-07-31T10:37:43;99830.38;;;23.66;55.96
61384;BME280;63511;49.346;8.798;2023-07-31T10:40:11;99837.22;;;23.61;54.39
61384;BME280;63511;49.346;8.798;2023-07-31T10:42:46;99834.69;;;23.68;54.69
61384;BME280;63511;49.346;8.798;2023-07-31T10:45:14;99839.09;;;23.86;55.54
61384;BME280;63511;49.346;8.798;2023-07-31T10:47:58;99845.97;;;23.89;54.89
61384;BME280;63511;49.346;8.798;2023-07-31T10:50:26;99846.94;;;24.10;54.64
61384;BME280;63511;49.346;8.798;2023-07-31T10:52:55;99834.00;;;23.98;53.02
61384;BME280;63511;49.346;8.798;2023-07-31T10:55:26;99814.34;;;24.19;54.17
61384;BME280;63511;49.346;8.798;2023-07-31T10:57:55;99831.59;;;24.33;53.10
61384;BME280;63511;49.346;8.798;2023-07-31T11:00:24;99830.69;;;24.25;53.21
61384;BME280;63511;49.346;8.798;2023-07-31T11:02:58;99824.66;;;24.19;52.96
61384;BME280;63511;49.346;8.798;2023-07-31T11:05:47;99834.16;;;24.26;53.69
61384;BME280;63511;49.346;8.798;2023-07-31T11:08:15;99817.66;;;23.98;52.72
61384;BME280;63511;49.346;8.798;2023-07-31T11:10:42;99817.53;;;23.75;53.58
61384;BME280;63511;49.346;8.798;2023-07-31T11:13:10;99820.03;;;23.61;54.80
61384;BME280;63511;49.346;8.798;2023-07-31T11:15:37;99823.50;;;23.65;54.51
61384;BME280;63511;49.346;8.798;2023-07-31T11:18:04;99823.56;;;23.76;54.71
61384;BME280;63511;49.346;8.798;2023-07-31T11:20:34;99816.75;;;23.87;54.42
61384;BME280;63511;49.346;8.798;2023-07-31T11:23:01;99811.47;;;23.68;53.20
61384;BME280;63511;49.346;8.798;2023-07-31T11:25:29;99817.47;;;23.61;54.10
61384;BME280;63511;49.346;8.798;2023-07-31T11:27:57;99809.88;;;23.90;54.38
61384;BME280;63511;49.346;8.798;2023-07-31T11:30:25;99796.94;;;23.80;55.65
61384;BME280;63511;49.346;8.798;2023-07-31T11:32:51;99801.19;;;23.75;55.25
61384;BME280;63511;49.346;8.798;2023-07-31T11:35:18;99802.22;;;24.04;52.82
61384;BME280;63511;49.346;8.798;2023-07-31T11:37:44;99799.66;;;24.11;52.93
61384;BME280;63511;49.346;8.798;2023-07-31T11:40:11;99797.16;;;24.24;51.92
61384;BME280;63511;49.346;8.798;2023-07-31T11:42:41;99791.16;;;24.37;53.30
61384;BME280;63511;49.346;8.798;2023-07-31T11:45:09;99786.84;;;24.28;52.27
61384;BME280;63511;49.346;8.798;2023-07-31T11:47:37;99798.06;;;24.39;52.53
61384;BME280;63511;49.346;8.798;2023-07-31T11:50:05;99789.47;;;24.46;53.85
61384;BME280;63511;49.346;8.798;2023-07-31T11:52:37;99788.53;;;24.19;54.23
61384;BME280;63511;49.346;8.798;2023-07-31T11:55:05;99786.72;;;24.01;53.84
61384;BME280;63511;49.346;8.798;2023-07-31T11:57:34;99789.28;;;23.99;55.44
61384;BME280;63511;49.346;8.798;2023-07-31T12:00:02;99777.31;;;24.17;54.41
61384;BME280;63511;49.346;8.798;2023-07-31T12:02:29;99785.03;;;24.09;54.08
61384;BME280;63511;49.346;8.798;2023-07-31T12:04:57;99779.97;;;24.24;54.86
61384;BME280;63511;49.346;8.798;2023-07-31T12:11:45;99774.78;;;24.26;53.40
61384;BME280;63511;49.346;8.798;2023-07-31T12:18:18;99747.28;;;24.32;54.47
61384;BME280;63511;49.346;8.798;2023-07-31T12:24:19;99749.03;;;24.82;54.48
61384;BME280;63511;49.346;8.798;2023-07-31T12:27:21;99741.28;;;24.67;52.85
61384;BME280;63511;49.346;8.798;2023-07-31T12:33:36;99726.63;;;24.41;53.94
61384;BME280;63511;49.346;8.798;2023-07-31T12:52:00;99698.19;;;25.49;52.52
61384;BME280;63511;49.346;8.798;2023-07-31T12:54:31;99692.06;;;25.73;53.38
61384;BME280;63511;49.346;8.798;2023-07-31T12:57:04;99702.56;;;25.15;52.93
61384;BME280;63511;49.346;8.798;2023-07-31T12:59:33;99706.03;;;25.11;52.39
61384;BME280;63511;49.346;8.798;2023-07-31T13:02:06;99708.53;;;25.40;54.15
61384;BME280;63511;49.346;8.798;2023-07-31T13:04:35;99703.44;;;25.17;53.76
61384;BME280;63511;49.346;8.798;2023-07-31T13:07:03;99700.00;;;24.94;53.18
61384;BME280;63511;49.346;8.798;2023-07-31T13:09:30;99700.00;;;24.74;54.08
61384;BME280;63511;49.346;8.798;2023-07-31T13:11:57;99694.81;;;24.70;54.14
61384;BME280;63511;49.346;8.798;2023-07-31T13:14:24;99703.44;;;24.70;54.80
61384;BME280;63511;49.346;8.798;2023-07-31T13:16:55;99687.06;;;24.83;53.75
61384;BME280;63511;49.346;8.798;2023-07-31T13:19:23;99690.53;;;24.90;54.44
61384;BME280;63511;49.346;8.798;2023-07-31T13:21:50;99686.25;;;24.96;54.22
61384;BME280;63511;49.346;8.798;2023-07-31T13:24:18;99693.97;;;24.95;54.87
61384;BME280;63511;49.346;8.798;2023-07-31T13:26:45;99693.97;;;25.18;54.65
61384;BME280;63511;49.346;8.798;2023-07-31T13:29:12;99698.25;;;24.79;54.29
61384;BME280;63511;49.346;8.798;2023-07-31T13:31:38;99687.97;;;24.91;55.08
61384;BME280;63511;49.346;8.798;2023-07-31T13:34:05;99685.34;;;24.75;53.57
61384;BME280;63511;49.346;8.798;2023-07-31T13:36:31;99678.47;;;24.49;53.47
61384;BME280;63511;49.346;8.798;2023-07-31T13:38:59;99679.34;;;24.64;55.09
61384;BME280;63511;49.346;8.798;2023-07-31T13:41:27;99680.19;;;24.75;52.86
61384;BME280;63511;49.346;8.798;2023-07-31T13:43:56;99667.25;;;24.97;53.95
61384;BME280;63511;49.346;8.798;2023-07-31T13:46:29;99670.72;;;24.86;54.50
61384;BME280;63511;49.346;8.798;2023-07-31T13:49:19;99668.13;;;24.78;54.19
61384;BME280;63511;49.346;8.798;2023-07-31T13:51:59;99662.97;;;24.68;53.56
61384;BME280;63511;49.346;8.798;2023-07-31T13:54:45;99648.31;;;24.73;54.08
61384;BME280;63511;49.346;8.798;2023-07-31T14:00:24;99656.06;;;24.85;54.09
61384;BME280;63511;49.346;8.798;2023-07-31T14:02:55;99650.03;;;25.09;52.31
61384;BME280;63511;49.346;8.798;2023-07-31T14:05:28;99650.91;;;25.12;53.00
61384;BME280;63511;49.346;8.798;2023-07-31T14:08:10;99639.72;;;25.01;53.57
61384;BME280;63511;49.346;8.798;2023-07-31T14:10:37;99649.19;;;24.69;53.54
61384;BME280;63511;49.346;8.798;2023-07-31T14:13:07;99662.13;;;24.61;53.69
61384;BME280;63511;49.346;8.798;2023-07-31T14:15:35;99660.41;;;24.39;54.08
61384;BME280;63511;49.346;8.798;2023-07-31T14:18:02;99656.09;;;24.39;54.52
61384;BME280;63511;49.346;8.798;2023-07-31T14:20:29;99658.66;;;24.68;53.90